CheckWX is a tool to help pilots better visualize weather data.  It is not intended as a substitute for an official pre-flight weather briefing.

16:45:50 UTC

KUES TAF
Waukesha County Airport
Waukesha, Wisconsin, USA
KUES 161559Z 1616/1712 08004KT P6SM BKN011 FM161700 09004KT P6SM SCT015 SCT050 FM170600 00000KT 2SM BR BKN015 FM171100 00000KT 1 1/2SM BR SCT010

Sep-16@
16:00 UTC

Sep-16 @ 16:00 UTC

Sep-16@
17:00 UTC

Sep-16 @ 17:00 UTC

KUES 161559Z 1616/1712 08004KT P6SM BKN011
Wind
  • 080° at 4 KTS
Cloud Levels
  • Broken at 1,100' AGL

Sep-16@
17:00 UTC

Sep-16 @ 17:00 UTC

Sep-17@
06:00 UTC

Sep-17 @ 06:00 UTC

FM161700 09004KT P6SM SCT015 SCT050

From

From Standard forecast or significant change

Wind
  • 090° at 4 KTS
Cloud Levels
  • Scattered at 1,500' AGL
  • Scattered at 5,000' AGL

Sep-17@
06:00 UTC

Sep-17 @ 06:00 UTC

Sep-17@
11:00 UTC

Sep-17 @ 11:00 UTC

FM170600 00000KT 2SM BR BKN015

From

From Standard forecast or significant change

Conditions
Mist
Cloud Levels
  • Broken at 1,500' AGL

Sep-17@
11:00 UTC

Sep-17 @ 11:00 UTC

Sep-17@
12:00 UTC

Sep-17 @ 12:00 UTC

FM171100 00000KT 1 1/2SM BR SCT010

From

From Standard forecast or significant change

Conditions
Mist
Cloud Levels
  • Scattered at 1,000' AGL